sensor_id;sensor_type;location;lat;lon;timestamp;pressure;altitude;pressure_sealevel;temperature;humidity
39141;BME280;24875;48.436;10.298;2023-10-08T00:00:46;97094.63;;;16.71;100.00
39141;BME280;24875;48.436;10.298;2023-10-08T00:03:15;97084.78;;;16.65;100.00
39141;BME280;24875;48.436;10.298;2023-10-08T00:05:43;97092.69;;;16.58;100.00
39141;BME280;24875;48.436;10.298;2023-10-08T00:08:11;97084.91;;;16.57;100.00
39141;BME280;24875;48.436;10.298;2023-10-08T00:10:40;97089.84;;;16.60;100.00
39141;BME280;24875;48.436;10.298;2023-10-08T00:13:08;97094.69;;;16.50;100.00
39141;BME280;24875;48.436;10.298;2023-10-08T00:15:35;97096.59;;;16.56;100.00
39141;BME280;24875;48.436;10.298;2023-10-08T00:18:04;97095.03;;;16.68;100.00
39141;BME280;24875;48.436;10.298;2023-10-08T00:20:32;97091.47;;;16.61;100.00
39141;BME280;24875;48.436;10.298;2023-10-08T00:23:08;97090.88;;;16.59;100.00
39141;BME280;24875;48.436;10.298;2023-10-08T00:25:35;97097.25;;;16.64;100.00
39141;BME280;24875;48.436;10.298;2023-10-08T00:28:07;97081.97;;;16.73;100.00
39141;BME280;24875;48.436;10.298;2023-10-08T00:30:37;97081.09;;;16.66;100.00
39141;BME280;24875;48.436;10.298;2023-10-08T00:33:05;97083.63;;;16.74;100.00
39141;BME280;24875;48.436;10.298;2023-10-08T00:35:37;97081.97;;;16.73;100.00
39141;BME280;24875;48.436;10.298;2023-10-08T00:38:04;97077.59;;;16.65;100.00
39141;BME280;24875;48.436;10.298;2023-10-08T00:40:39;97077.81;;;16.64;100.00
39141;BME280;24875;48.436;10.298;2023-10-08T00:43:09;97077.66;;;16.72;100.00
39141;BME280;24875;48.436;10.298;2023-10-08T00:45:38;97072.00;;;16.88;100.00
39141;BME280;24875;48.436;10.298;2023-10-08T00:48:10;97075.91;;;16.85;100.00
39141;BME280;24875;48.436;10.298;2023-10-08T00:50:42;97073.91;;;16.94;100.00
39141;BME280;24875;48.436;10.298;2023-10-08T00:53:09;97061.22;;;16.96;100.00
39141;BME280;24875;48.436;10.298;2023-10-08T00:55:42;97054.78;;;16.84;100.00
39141;BME280;24875;48.436;10.298;2023-10-08T00:58:18;97051.88;;;16.79;100.00
39141;BME280;24875;48.436;10.298;2023-10-08T01:00:50;97053.72;;;16.78;100.00
39141;BME280;24875;48.436;10.298;2023-10-08T01:03:19;97049.47;;;16.84;100.00
39141;BME280;24875;48.436;10.298;2023-10-08T01:05:46;97050.84;;;16.73;100.00
39141;BME280;24875;48.436;10.298;2023-10-08T01:08:13;97050.78;;;16.67;100.00
39141;BME280;24875;48.436;10.298;2023-10-08T01:10:43;97057.84;;;16.81;100.00
39141;BME280;24875;48.436;10.298;2023-10-08T01:13:12;97056.00;;;16.81;100.00
39141;BME280;24875;48.436;10.298;2023-10-08T01:15:44;97052.09;;;16.77;100.00
39141;BME280;24875;48.436;10.298;2023-10-08T01:18:15;97048.41;;;16.78;100.00
39141;BME280;24875;48.436;10.298;2023-10-08T01:20:48;97047.91;;;16.96;100.00
39141;BME280;24875;48.436;10.298;2023-10-08T01:23:19;97045.66;;;16.99;100.00
39141;BME280;24875;48.436;10.298;2023-10-08T01:25:49;97045.66;;;16.99;100.00
39141;BME280;24875;48.436;10.298;2023-10-08T01:28:18;97041.34;;;16.92;100.00
39141;BME280;24875;48.436;10.298;2023-10-08T01:30:51;97044.25;;;16.69;100.00
39141;BME280;24875;48.436;10.298;2023-10-08T01:33:20;97036.97;;;16.78;100.00
39141;BME280;24875;48.436;10.298;2023-10-08T01:35:47;97036.56;;;16.81;100.00
39141;BME280;24875;48.436;10.298;2023-10-08T01:38:14;97033.91;;;16.81;100.00
39141;BME280;24875;48.436;10.298;2023-10-08T01:40:49;97032.94;;;16.95;100.00
39141;BME280;24875;48.436;10.298;2023-10-08T01:43:17;97030.66;;;16.85;100.00
39141;BME280;24875;48.436;10.298;2023-10-08T01:45:44;97038.56;;;16.79;100.00
39141;BME280;24875;48.436;10.298;2023-10-08T01:48:14;97040.00;;;16.75;100.00
39141;BME280;24875;48.436;10.298;2023-10-08T01:50:45;97041.72;;;16.55;100.00
39141;BME280;24875;48.436;10.298;2023-10-08T01:53:12;97044.31;;;16.76;100.00
39141;BME280;24875;48.436;10.298;2023-10-08T01:55:41;97037.50;;;16.67;100.00
39141;BME280;24875;48.436;10.298;2023-10-08T01:58:17;97041.34;;;16.92;100.00
39141;BME280;24875;48.436;10.298;2023-10-08T02:00:44;97035.88;;;16.72;100.00
39141;BME280;24875;48.436;10.298;2023-10-08T02:03:12;97034.94;;;16.86;100.00
39141;BME280;24875;48.436;10.298;2023-10-08T02:05:41;97039.59;;;16.71;100.00
39141;BME280;24875;48.436;10.298;2023-10-08T02:08:08;97032.75;;;16.62;100.00
39141;BME280;24875;48.436;10.298;2023-10-08T02:10:36;97033.84;;;16.74;100.00
39141;BME280;24875;48.436;10.298;2023-10-08T02:13:03;97039.75;;;16.70;100.00
39141;BME280;24875;48.436;10.298;2023-10-08T02:15:35;97034.44;;;16.70;100.00
39141;BME280;24875;48.436;10.298;2023-10-08T02:18:04;97045.72;;;16.72;100.00
39141;BME280;24875;48.436;10.298;2023-10-08T02:20:31;97044.53;;;16.81;100.00
39141;BME280;24875;48.436;10.298;2023-10-08T02:22:58;97040.66;;;16.83;100.00
39141;BME280;24875;48.436;10.298;2023-10-08T02:25:25;97040.03;;;16.81;100.00
39141;BME280;24875;48.436;10.298;2023-10-08T02:27:51;97033.81;;;16.68;100.00
39141;BME280;24875;48.436;10.298;2023-10-08T02:30:18;97031.44;;;16.52;100.00
39141;BME280;24875;48.436;10.298;2023-10-08T02:32:46;97038.50;;;16.66;100.00
39141;BME280;24875;48.436;10.298;2023-10-08T02:35:12;97040.25;;;16.52;100.00
39141;BME280;24875;48.436;10.298;2023-10-08T02:37:39;97035.94;;;16.51;100.00
39141;BME280;24875;48.436;10.298;2023-10-08T02:40:07;97034.34;;;16.57;100.00
39141;BME280;24875;48.436;10.298;2023-10-08T02:42:42;97032.66;;;16.49;100.00
39141;BME280;24875;48.436;10.298;2023-10-08T02:45:10;97027.00;;;16.59;100.00
39141;BME280;24875;48.436;10.298;2023-10-08T02:47:40;97032.31;;;16.59;100.00
39141;BME280;24875;48.436;10.298;2023-10-08T02:50:09;97031.59;;;16.71;100.00
39141;BME280;24875;48.436;10.298;2023-10-08T02:52:37;97026.00;;;16.60;100.00
39141;BME280;24875;48.436;10.298;2023-10-08T02:55:04;97024.75;;;16.56;100.00
39141;BME280;24875;48.436;10.298;2023-10-08T02:57:43;97020.00;;;16.51;100.00
39141;BME280;24875;48.436;10.298;2023-10-08T03:00:11;97026.56;;;16.55;100.00
39141;BME280;24875;48.436;10.298;2023-10-08T03:02:39;97022.81;;;16.44;100.00
39141;BME280;24875;48.436;10.298;2023-10-08T03:05:06;97017.72;;;16.48;100.00
39141;BME280;24875;48.436;10.298;2023-10-08T03:07:40;97022.09;;;16.56;100.00
39141;BME280;24875;48.436;10.298;2023-10-08T03:10:07;97021.53;;;16.40;100.00
39141;BME280;24875;48.436;10.298;2023-10-08T03:12:43;97019.19;;;16.51;100.00
39141;BME280;24875;48.436;10.298;2023-10-08T03:15:11;97024.88;;;16.48;100.00
39141;BME280;24875;48.436;10.298;2023-10-08T03:17:39;97024.00;;;16.41;100.00
39141;BME280;24875;48.436;10.298;2023-10-08T03:20:14;97018.19;;;16.31;100.00
39141;BME280;24875;48.436;10.298;2023-10-08T03:22:56;97032.38;;;16.38;100.00
39141;BME280;24875;48.436;10.298;2023-10-08T03:25:23;97024.94;;;16.27;100.00
39141;BME280;24875;48.436;10.298;2023-10-08T03:27:51;97027.28;;;16.43;100.00
39141;BME280;24875;48.436;10.298;2023-10-08T03:30:19;97027.69;;;16.40;100.00
39141;BME280;24875;48.436;10.298;2023-10-08T03:32:46;97017.13;;;16.53;100.00
39141;BME280;24875;48.436;10.298;2023-10-08T03:35:16;97014.09;;;16.56;100.00
39141;BME280;24875;48.436;10.298;2023-10-08T03:37:52;97022.09;;;16.56;100.00
39141;BME280;24875;48.436;10.298;2023-10-08T03:40:21;97019.56;;;16.82;100.00
39141;BME280;24875;48.436;10.298;2023-10-08T03:42:51;97018.75;;;16.88;100.00
39141;BME280;24875;48.436;10.298;2023-10-08T03:45:17;97012.16;;;16.77;100.00
39141;BME280;24875;48.436;10.298;2023-10-08T03:47:58;97017.06;;;16.74;100.00
39141;BME280;24875;48.436;10.298;2023-10-08T03:50:32;97022.44;;;16.80;100.00
39141;BME280;24875;48.436;10.298;2023-10-08T03:53:06;97021.03;;;16.84;100.00
39141;BME280;24875;48.436;10.298;2023-10-08T03:55:38;97010.88;;;17.01;100.00
39141;BME280;24875;48.436;10.298;2023-10-08T03:58:06;97024.66;;;16.77;100.00
39141;BME280;24875;48.436;10.298;2023-10-08T04:00:37;97018.09;;;16.73;100.00
39141;BME280;24875;48.436;10.298;2023-10-08T04:03:07;97013.22;;;16.83;100.00
39141;BME280;24875;48.436;10.298;2023-10-08T04:05:37;97019.56;;;16.82;100.00
39141;BME280;24875;48.436;10.298;2023-10-08T04:08:25;97018.47;;;16.70;100.00
39141;BME280;24875;48.436;10.298;2023-10-08T04:11:09;97020.19;;;16.84;100.00
39141;BME280;24875;48.436;10.298;2023-10-08T04:13:55;97023.41;;;16.73;100.00
39141;BME280;24875;48.436;10.298;2023-10-08T04:16:25;97022.00;;;16.77;100.00
39141;BME280;24875;48.436;10.298;2023-10-08T04:18:53;97021.84;;;16.85;100.00
39141;BME280;24875;48.436;10.298;2023-10-08T04:21:21;97020.03;;;16.92;100.00
39141;BME280;24875;48.436;10.298;2023-10-08T04:23:52;97023.31;;;16.94;100.00
39141;BME280;24875;48.436;10.298;2023-10-08T04:26:21;97028.69;;;17.07;100.00
39141;BME280;24875;48.436;10.298;2023-10-08T04:28:50;97025.16;;;16.93;100.00
39141;BME280;24875;48.436;10.298;2023-10-08T04:31:20;97024.72;;;16.90;100.00
39141;BME280;24875;48.436;10.298;2023-10-08T04:33:50;97026.91;;;16.80;100.00
39141;BME280;24875;48.436;10.298;2023-10-08T04:36:18;97027.31;;;16.77;100.00
39141;BME280;24875;48.436;10.298;2023-10-08T04:38:45;97021.56;;;16.73;100.00
39141;BME280;24875;48.436;10.298;2023-10-08T04:41:13;97021.28;;;16.62;100.00
39141;BME280;24875;48.436;10.298;2023-10-08T04:43:45;97029.09;;;16.70;100.00
39141;BME280;24875;48.436;10.298;2023-10-08T04:46:15;97022.53;;;16.66;100.00
39141;BME280;24875;48.436;10.298;2023-10-08T04:48:59;97014.31;;;16.61;100.00
39141;BME280;24875;48.436;10.298;2023-10-08T04:51:30;97008.56;;;16.57;100.00
39141;BME280;24875;48.436;10.298;2023-10-08T04:54:00;97009.81;;;16.61;100.00
39141;BME280;24875;48.436;10.298;2023-10-08T04:56:30;97006.88;;;16.50;100.00
39141;BME280;24875;48.436;10.298;2023-10-08T04:58:59;97009.16;;;16.53;100.00
39141;BME280;24875;48.436;10.298;2023-10-08T05:01:26;97003.13;;;16.38;100.00
39141;BME280;24875;48.436;10.298;2023-10-08T05:04:03;97005.63;;;16.46;100.00
39141;BME280;24875;48.436;10.298;2023-10-08T05:06:48;97015.44;;;16.46;100.00
39141;BME280;24875;48.436;10.298;2023-10-08T05:09:26;97020.03;;;16.58;100.00
39141;BME280;24875;48.436;10.298;2023-10-08T05:12:05;97026.59;;;16.62;100.00
39141;BME280;24875;48.436;10.298;2023-10-08T05:14:37;97029.75;;;16.72;100.00
39141;BME280;24875;48.436;10.298;2023-10-08T05:17:06;97026.69;;;16.75;100.00
39141;BME280;24875;48.436;10.298;2023-10-08T05:19:36;97034.31;;;16.50;100.00
39141;BME280;24875;48.436;10.298;2023-10-08T05:22:21;97031.84;;;16.49;100.00
39141;BME280;24875;48.436;10.298;2023-10-08T05:25:09;97032.00;;;16.41;100.00
39141;BME280;24875;48.436;10.298;2023-10-08T05:27:51;97029.91;;;16.64;100.00
39141;BME280;24875;48.436;10.298;2023-10-08T05:30:35;97036.31;;;16.76;100.00
39141;BME280;24875;48.436;10.298;2023-10-08T05:33:08;97037.88;;;16.64;100.00
39141;BME280;24875;48.436;10.298;2023-10-08T05:35:51;97042.13;;;16.58;100.00
39141;BME280;24875;48.436;10.298;2023-10-08T05:38:28;97047.53;;;16.65;100.00
39141;BME280;24875;48.436;10.298;2023-10-08T05:41:08;97051.81;;;16.66;100.00
39141;BME280;24875;48.436;10.298;2023-10-08T05:43:56;97057.72;;;16.61;100.00
39141;BME280;24875;48.436;10.298;2023-10-08T05:46:38;97061.28;;;16.75;100.00
39141;BME280;24875;48.436;10.298;2023-10-08T05:49:17;97065.56;;;16.69;100.00
39141;BME280;24875;48.436;10.298;2023-10-08T05:52:03;97063.50;;;16.65;100.00
39141;BME280;24875;48.436;10.298;2023-10-08T05:54:53;97074.13;;;16.65;100.00
39141;BME280;24875;48.436;10.298;2023-10-08T05:57:45;97073.75;;;16.68;100.00
39141;BME280;24875;48.436;10.298;2023-10-08T06:00:28;97084.44;;;16.74;100.00
39141;BME280;24875;48.436;10.298;2023-10-08T06:03:27;97085.56;;;16.93;100.00
39141;BME280;24875;48.436;10.298;2023-10-08T06:06:11;97092.84;;;16.78;100.00
39141;BME280;24875;48.436;10.298;2023-10-08T06:09:01;97084.31;;;16.89;100.00
39141;BME280;24875;48.436;10.298;2023-10-08T06:11:45;97095.59;;;16.91;100.00
39141;BME280;24875;48.436;10.298;2023-10-08T06:14:21;97085.97;;;16.90;100.00
39141;BME280;24875;48.436;10.298;2023-10-08T06:17:01;97088.59;;;16.83;100.00
39141;BME280;24875;48.436;10.298;2023-10-08T06:19:40;97075.16;;;16.98;100.00
39141;BME280;24875;48.436;10.298;2023-10-08T06:22:05;97074.94;;;16.65;100.00
39141;BME280;24875;48.436;10.298;2023-10-08T06:24:32;97081.47;;;16.63;100.00
39141;BME280;24875;48.436;10.298;2023-10-08T06:27:00;97082.50;;;16.62;100.00
39141;BME280;24875;48.436;10.298;2023-10-08T06:29:30;97083.97;;;16.71;100.00
39141;BME280;24875;48.436;10.298;2023-10-08T06:31:57;97086.88;;;16.76;100.00
39141;BME280;24875;48.436;10.298;2023-10-08T06:34:28;97092.84;;;16.78;100.00
39141;BME280;24875;48.436;10.298;2023-10-08T06:36:59;97085.38;;;16.94;100.00
39141;BME280;24875;48.436;10.298;2023-10-08T06:39:26;97097.44;;;16.63;100.00
39141;BME280;24875;48.436;10.298;2023-10-08T06:41:59;97096.78;;;16.82;100.00
39141;BME280;24875;48.436;10.298;2023-10-08T06:44:26;97089.63;;;16.89;100.00
39141;BME280;24875;48.436;10.298;2023-10-08T06:46:53;97098.25;;;16.91;100.00
39141;BME280;24875;48.436;10.298;2023-10-08T06:49:20;97089.09;;;17.00;100.00
39141;BME280;24875;48.436;10.298;2023-10-08T06:51:50;97097.16;;;17.12;100.00
39141;BME280;24875;48.436;10.298;2023-10-08T06:54:18;97089.63;;;17.16;100.00
39141;BME280;24875;48.436;10.298;2023-10-08T06:56:45;97091.19;;;17.10;100.00
39141;BME280;24875;48.436;10.298;2023-10-08T06:59:17;97090.13;;;16.99;100.00
39141;BME280;24875;48.436;10.298;2023-10-08T07:01:44;97089.19;;;17.12;100.00
39141;BME280;24875;48.436;10.298;2023-10-08T07:04:13;97083.19;;;17.04;100.00
39141;BME280;24875;48.436;10.298;2023-10-08T07:06:40;97091.19;;;17.10;100.00
39141;BME280;24875;48.436;10.298;2023-10-08T07:09:08;97089.59;;;17.09;100.00
39141;BME280;24875;48.436;10.298;2023-10-08T07:11:49;97087.28;;;17.07;100.00
39141;BME280;24875;48.436;10.298;2023-10-08T07:14:20;97087.19;;;17.21;100.00
39141;BME280;24875;48.436;10.298;2023-10-08T07:16:46;97087.22;;;16.94;100.00
39141;BME280;24875;48.436;10.298;2023-10-08T07:19:16;97083.41;;;17.09;100.00
39141;BME280;24875;48.436;10.298;2023-10-08T07:21:44;97081.50;;;17.30;100.00
39141;BME280;24875;48.436;10.298;2023-10-08T07:24:11;97079.25;;;17.27;100.00
39141;BME280;24875;48.436;10.298;2023-10-08T07:26:40;97078.75;;;17.17;100.00
39141;BME280;24875;48.436;10.298;2023-10-08T07:29:14;97082.59;;;17.49;100.00
39141;BME280;24875;48.436;10.298;2023-10-08T07:31:43;97086.13;;;17.49;100.00
39141;BME280;24875;48.436;10.298;2023-10-08T07:34:14;97081.56;;;17.43;100.00
39141;BME280;24875;48.436;10.298;2023-10-08T07:36:51;97088.09;;;17.34;100.00
39141;BME280;24875;48.436;10.298;2023-10-08T07:39:20;97094.47;;;17.46;100.00
39141;BME280;24875;48.436;10.298;2023-10-08T07:41:52;97095.41;;;17.66;100.00
39141;BME280;24875;48.436;10.298;2023-10-08T07:44:22;97090.75;;;17.81;100.00
39141;BME280;24875;48.436;10.298;2023-10-08T07:46:49;97095.81;;;17.70;100.00
39141;BME280;24875;48.436;10.298;2023-10-08T07:49:16;97102.81;;;17.71;100.00
39141;BME280;24875;48.436;10.298;2023-10-08T07:51:42;97101.84;;;17.91;100.00
39141;BME280;24875;48.436;10.298;2023-10-08T07:54:16;97101.59;;;17.79;100.00
39141;BME280;24875;48.436;10.298;2023-10-08T07:56:45;97100.19;;;17.83;100.00
39141;BME280;24875;48.436;10.298;2023-10-08T07:59:11;97102.66;;;17.98;100.00
39141;BME280;24875;48.436;10.298;2023-10-08T08:01:41;97106.25;;;18.18;100.00
39141;BME280;24875;48.436;10.298;2023-10-08T08:04:08;97106.59;;;18.08;100.00
39141;BME280;24875;48.436;10.298;2023-10-08T08:06:35;97104.13;;;18.13;100.00
39141;BME280;24875;48.436;10.298;2023-10-08T08:09:02;97105.56;;;18.09;100.00
39141;BME280;24875;48.436;10.298;2023-10-08T08:11:33;97106.78;;;18.07;100.00
39141;BME280;24875;48.436;10.298;2023-10-08T08:14:02;97105.56;;;18.09;100.00
39141;BME280;24875;48.436;10.298;2023-10-08T08:16:33;97101.94;;;18.23;100.00
39141;BME280;24875;48.436;10.298;2023-10-08T08:19:03;97104.63;;;18.42;100.00
39141;BME280;24875;48.436;10.298;2023-10-08T08:21:29;97105.19;;;18.19;100.00
39141;BME280;24875;48.436;10.298;2023-10-08T08:23:56;97097.41;;;18.24;100.00
39141;BME280;24875;48.436;10.298;2023-10-08T08:26:30;97099.50;;;18.41;100.00
39141;BME280;24875;48.436;10.298;2023-10-08T08:29:05;97107.28;;;18.30;100.00
39141;BME280;24875;48.436;10.298;2023-10-08T08:31:34;97098.03;;;18.19;100.00
39141;BME280;24875;48.436;10.298;2023-10-08T08:34:03;97100.28;;;18.29;100.00
39141;BME280;24875;48.436;10.298;2023-10-08T08:36:35;97098.25;;;18.43;100.00
39141;BME280;24875;48.436;10.298;2023-10-08T08:39:04;97096.41;;;18.31;100.00
39141;BME280;24875;48.436;10.298;2023-10-08T08:41:36;97102.38;;;18.65;100.00
39141;BME280;24875;48.436;10.298;2023-10-08T08:44:04;97099.69;;;18.72;100.00
39141;BME280;24875;48.436;10.298;2023-10-08T08:46:33;97092.69;;;18.96;100.00
39141;BME280;24875;48.436;10.298;2023-10-08T08:49:03;97106.06;;;18.96;98.62
39141;BME280;24875;48.436;10.298;2023-10-08T08:51:31;97109.75;;;18.95;99.79
39141;BME280;24875;48.436;10.298;2023-10-08T08:53:58;97109.31;;;18.98;100.00
39141;BME280;24875;48.436;10.298;2023-10-08T08:56:30;97108.50;;;18.98;100.00
39141;BME280;24875;48.436;10.298;2023-10-08T08:58:58;97101.53;;;19.10;99.06
39141;BME280;24875;48.436;10.298;2023-10-08T09:01:26;97094.50;;;19.15;98.22
39141;BME280;24875;48.436;10.298;2023-10-08T09:03:58;97098.13;;;19.47;100.00
39141;BME280;24875;48.436;10.298;2023-10-08T09:06:27;97104.75;;;19.38;97.03
39141;BME280;24875;48.436;10.298;2023-10-08T09:08:54;97119.78;;;19.32;97.22
39141;BME280;24875;48.436;10.298;2023-10-08T09:11:38;97128.50;;;19.65;96.18
39141;BME280;24875;48.436;10.298;2023-10-08T09:14:07;97135.03;;;19.75;97.30
39141;BME280;24875;48.436;10.298;2023-10-08T09:16:35;97138.28;;;19.90;97.01
39141;BME280;24875;48.436;10.298;2023-10-08T09:19:02;97136.44;;;19.97;93.01
39141;BME280;24875;48.436;10.298;2023-10-08T09:21:31;97134.28;;;20.12;91.38
39141;BME280;24875;48.436;10.298;2023-10-08T09:23:57;97152.66;;;20.09;90.87
39141;BME280;24875;48.436;10.298;2023-10-08T09:26:25;97161.81;;;20.25;92.44
39141;BME280;24875;48.436;10.298;2023-10-08T09:28:52;97173.66;;;20.05;90.81
39141;BME280;24875;48.436;10.298;2023-10-08T09:31:22;97171.38;;;20.46;92.18
39141;BME280;24875;48.436;10.298;2023-10-08T09:33:53;97173.34;;;20.57;91.44
39141;BME280;24875;48.436;10.298;2023-10-08T09:36:20;97166.66;;;20.41;92.77
39141;BME280;24875;48.436;10.298;2023-10-08T09:38:58;97187.13;;;20.60;90.45
39141;BME280;24875;48.436;10.298;2023-10-08T09:41:29;97186.22;;;20.79;87.59
39141;BME280;24875;48.436;10.298;2023-10-08T09:43:56;97180.97;;;20.90;89.83
39141;BME280;24875;48.436;10.298;2023-10-08T09:46:29;97185.81;;;20.76;89.17
39141;BME280;24875;48.436;10.298;2023-10-08T09:48:59;97185.81;;;21.00;87.70
39141;BME280;24875;48.436;10.298;2023-10-08T09:51:28;97187.97;;;20.91;89.39
39141;BME280;24875;48.436;10.298;2023-10-08T09:54:03;97189.47;;;20.87;90.42
39141;BME280;24875;48.436;10.298;2023-10-08T09:56:35;97180.47;;;20.69;91.06
39141;BME280;24875;48.436;10.298;2023-10-08T09:59:04;97180.25;;;20.71;91.78
39141;BME280;24875;48.436;10.298;2023-10-08T10:01:32;97169.63;;;20.88;92.66
39141;BME280;24875;48.436;10.298;2023-10-08T10:03:59;97176.81;;;20.64;93.40
39141;BME280;24875;48.436;10.298;2023-10-08T10:06:26;97175.00;;;20.58;95.04
39141;BME280;24875;48.436;10.298;2023-10-08T10:08:55;97171.63;;;20.69;96.79
39141;BME280;24875;48.436;10.298;2023-10-08T10:11:28;97180.22;;;20.77;93.56
39141;BME280;24875;48.436;10.298;2023-10-08T10:13:58;97176.47;;;20.84;94.31
39141;BME280;24875;48.436;10.298;2023-10-08T10:16:26;97174.06;;;20.77;96.83
39141;BME280;24875;48.436;10.298;2023-10-08T10:18:55;97171.38;;;20.77;96.26
39141;BME280;24875;48.436;10.298;2023-10-08T10:21:31;97171.38;;;20.77;95.09
39141;BME280;24875;48.436;10.298;2023-10-08T10:23:58;97176.19;;;20.62;99.44
39141;BME280;24875;48.436;10.298;2023-10-08T10:26:28;97174.53;;;20.67;100.00
39141;BME280;24875;48.436;10.298;2023-10-08T10:29:17;97161.66;;;20.82;100.00
39141;BME280;24875;48.436;10.298;2023-10-08T10:31:45;97160.53;;;20.65;99.33
39141;BME280;24875;48.436;10.298;2023-10-08T10:34:13;97165.13;;;20.52;100.00
39141;BME280;24875;48.436;10.298;2023-10-08T10:36:42;97160.56;;;20.59;100.00
39141;BME280;24875;48.436;10.298;2023-10-08T10:39:10;97162.63;;;20.57;100.00
39141;BME280;24875;48.436;10.298;2023-10-08T10:41:44;97165.31;;;20.57;100.00
39141;BME280;24875;48.436;10.298;2023-10-08T10:44:11;97171.78;;;20.43;100.00
39141;BME280;24875;48.436;10.298;2023-10-08T10:46:40;97169.09;;;20.43;100.00
39141;BME280;24875;48.436;10.298;2023-10-08T10:49:08;97173.03;;;20.47;100.00
39141;BME280;24875;48.436;10.298;2023-10-08T10:51:43;97168.88;;;20.51;100.00
39141;BME280;24875;48.436;10.298;2023-10-08T10:54:10;97172.69;;;20.30;100.00
39141;BME280;24875;48.436;10.298;2023-10-08T10:56:36;97170.72;;;20.50;100.00
39141;BME280;24875;48.436;10.298;2023-10-08T10:59:09;97170.38;;;20.71;100.00
39141;BME280;24875;48.436;10.298;2023-10-08T11:01:45;97172.66;;;20.74;100.00
39141;BME280;24875;48.436;10.298;2023-10-08T11:04:12;97183.88;;;20.89;100.00
39141;BME280;24875;48.436;10.298;2023-10-08T11:06:42;97176.19;;;20.92;100.00
39141;BME280;24875;48.436;10.298;2023-10-08T11:09:10;97166.72;;;20.90;100.00
39141;BME280;24875;48.436;10.298;2023-10-08T11:11:41;97172.06;;;20.96;100.00
39141;BME280;24875;48.436;10.298;2023-10-08T11:14:11;97165.97;;;21.07;100.00
39141;BME280;24875;48.436;10.298;2023-10-08T11:16:42;97161.81;;;21.11;100.00
39141;BME280;24875;48.436;10.298;2023-10-08T11:19:09;97171.06;;;21.15;100.00
39141;BME280;24875;48.436;10.298;2023-10-08T11:21:48;97170.22;;;21.39;98.78
39141;BME280;24875;48.436;10.298;2023-10-08T11:24:27;97169.75;;;21.42;99.90
39141;BME280;24875;48.436;10.298;2023-10-08T11:26:54;97170.28;;;21.33;100.00
39141;BME280;24875;48.436;10.298;2023-10-08T11:29:33;97168.78;;;21.61;99.61
39141;BME280;24875;48.436;10.298;2023-10-08T11:32:04;97164.59;;;21.65;100.00
39141;BME280;24875;48.436;10.298;2023-10-08T11:34:32;97161.19;;;21.76;98.56
39141;BME280;24875;48.436;10.298;2023-10-08T11:37:04;97155.72;;;22.00;96.93
39141;BME280;24875;48.436;10.298;2023-10-08T11:39:38;97154.75;;;22.30;96.39
39141;BME280;24875;48.436;10.298;2023-10-08T11:42:10;97153.72;;;22.13;97.90
39141;BME280;24875;48.436;10.298;2023-10-08T11:45:04;97149.19;;;22.25;100.00
39141;BME280;24875;48.436;10.298;2023-10-08T11:47:43;97146.91;;;22.29;97.00
39141;BME280;24875;48.436;10.298;2023-10-08T11:50:10;97144.94;;;22.36;94.87
39141;BME280;24875;48.436;10.298;2023-10-08T11:52:42;97142.50;;;22.34;96.52
39141;BME280;24875;48.436;10.298;2023-10-08T11:55:08;97146.50;;;22.25;93.73
39141;BME280;24875;48.436;10.298;2023-10-08T11:57:35;97146.81;;;22.35;95.18
39141;BME280;24875;48.436;10.298;2023-10-08T12:00:12;97141.78;;;22.39;94.12
39141;BME280;24875;48.436;10.298;2023-10-08T12:02:44;97146.97;;;22.40;94.89
39141;BME280;24875;48.436;10.298;2023-10-08T12:05:11;97140.88;;;22.45;93.59
39141;BME280;24875;48.436;10.298;2023-10-08T12:07:45;97137.44;;;22.56;93.79
39141;BME280;24875;48.436;10.298;2023-10-08T12:10:11;97143.63;;;22.56;93.24
39141;BME280;24875;48.436;10.298;2023-10-08T12:12:39;97145.41;;;22.62;93.92
39141;BME280;24875;48.436;10.298;2023-10-08T12:15:07;97142.38;;;22.70;93.56
39141;BME280;24875;48.436;10.298;2023-10-08T12:17:36;97142.94;;;22.72;93.63
39141;BME280;24875;48.436;10.298;2023-10-08T12:20:05;97138.66;;;22.82;92.67
39141;BME280;24875;48.436;10.298;2023-10-08T12:22:48;97140.25;;;22.72;92.78
39141;BME280;24875;48.436;10.298;2023-10-08T12:25:15;97134.78;;;22.67;93.18
39141;BME280;24875;48.436;10.298;2023-10-08T12:27:41;97132.34;;;22.88;93.59
39141;BME280;24875;48.436;10.298;2023-10-08T12:30:09;97123.16;;;23.07;94.29
39141;BME280;24875;48.436;10.298;2023-10-08T12:32:37;97132.38;;;23.00;94.28
39141;BME280;24875;48.436;10.298;2023-10-08T12:35:07;97121.94;;;22.92;93.60
39141;BME280;24875;48.436;10.298;2023-10-08T12:37:38;97124.97;;;22.84;95.69
39141;BME280;24875;48.436;10.298;2023-10-08T12:40:06;97124.63;;;22.92;94.73
39141;BME280;24875;48.436;10.298;2023-10-08T12:42:37;97130.34;;;22.84;97.86
39141;BME280;24875;48.436;10.298;2023-10-08T12:45:06;97130.31;;;23.02;93.86
39141;BME280;24875;48.436;10.298;2023-10-08T12:47:38;97126.22;;;23.33;94.93
39141;BME280;24875;48.436;10.298;2023-10-08T12:50:07;97125.16;;;23.12;92.58
39141;BME280;24875;48.436;10.298;2023-10-08T12:52:35;97118.84;;;23.29;93.56
39141;BME280;24875;48.436;10.298;2023-10-08T12:55:01;97117.41;;;23.38;94.58
39141;BME280;24875;48.436;10.298;2023-10-08T12:57:30;97113.13;;;23.26;96.10
39141;BME280;24875;48.436;10.298;2023-10-08T13:00:00;97113.47;;;23.18;96.77
39141;BME280;24875;48.436;10.298;2023-10-08T13:02:28;97115.22;;;23.01;100.00